Raven, Kentucky
Current Conditions -  °F | °C
As of 5:55 PM on Tuesday 27 Jan 2015 (Local Time) from KPBX Reporting Station
Clear Clear  
Wind Chill: -6°   Ceiling: Unl
Heat Index: -3°   Visibility: 10mi
Dew Point: -10°   Wind: 6mph
Humidity: 57%   Direction: 340°NNW
Pressure: 30.03"   Gusts: NA
Location:  37.41°N, 82.8°W
Report Text: KPBX 272255Z AUTO 34005KT 10SM CLR M03/M10 A3003 RMK AO2 T10271102
Loading
Personal Weather Stations






























Interactive Weather Map New forecast layout! Learn more

10-Day Weather Forecast

Advertisements
Track Severe Weather on mobile